Time;durP1;ratioP1;P1;durP2;ratioP2;P2;SDS_P1;SDS_P2;PMS_P1;PMS_P2;Temp;Humidity;BMP_temperature;BMP_pressure;BME280_temperature;BME280_humidity;BME280_pressure;Samples;Min_cycle;Max_cycle;Signal;HPM_P1;HPM_P2
2022/03/14 00:00:13;;;;;;;;;;;;;;;17.62;60.71;101303.88;1008793;29;683;-74
2022/03/14 00:01:04;;;;;;;;;;;;;;;17.63;60.57;101308.28;1009346;29;723;-73
2022/03/14 00:01:54;;;;;;;;;;;;;;;17.63;61.24;101315.53;1009240;29;1899;-73
2022/03/14 00:02:45;;;;;;;;;;;;;;;17.63;60.47;101316.38;1009288;29;678;-73
2022/03/14 00:03:55;;;;;;;;;;;;;;;17.61;61.07;101312.09;1009207;29;638;-73
2022/03/14 00:04:45;;;;;;;;;;;;;;;17.61;60.83;101317.50;1009258;29;777;-73
2022/03/14 00:05:36;;;;;;;;;;;;;;;17.61;60.52;101314.81;1008830;29;711;-74
2022/03/14 00:06:26;;;;;;;;;;;;;;;17.60;60.85;101319.34;1009053;29;1850;-73
2022/03/14 00:07:17;;;;;;;;;;;;;;;17.59;60.25;101312.25;1009902;29;628;-74
2022/03/14 00:08:07;;;;;;;;;;;;;;;17.60;60.66;101313.94;1011240;29;1175;-74
2022/03/14 00:08:58;;;;;;;;;;;;;;;17.59;60.47;101314.94;1012654;29;1285;-74
2022/03/14 00:09:48;;;;;;;;;;;;;;;17.59;60.40;101320.31;1016111;29;788;-73
2022/03/14 00:10:39;;;;;;;;;;;;;;;17.59;60.10;101317.63;1016337;29;722;-73
2022/03/14 00:11:29;;;;;;;;;;;;;;;17.58;60.53;101307.84;1012612;29;652;-73
2022/03/14 00:12:23;;;;;;;;;;;;;;;17.58;60.89;101318.63;1012604;29;703;-73
2022/03/14 00:13:16;;;;;;;;;;;;;;;17.58;61.15;101320.47;1012602;29;651;-73
2022/03/14 00:14:08;;;;;;;;;;;;;;;17.57;60.11;101311.50;1012626;29;659;-73
2022/03/14 00:15:00;;;;;;;;;;;;;;;17.56;60.42;101312.50;1012344;29;1457;-74
2022/03/14 00:15:50;;;;;;;;;;;;;;;17.57;60.14;101314.22;1012460;29;639;-76
2022/03/14 00:16:43;;;;;;;;;;;;;;;17.56;60.44;101320.59;1013251;29;655;-74
2022/03/14 00:17:33;;;;;;;;;;;;;;;17.56;60.88;101320.59;1011911;29;636;-74
2022/03/14 00:18:25;;;;;;;;;;;;;;;17.56;60.47;101325.13;1012075;29;652;-74
2022/03/14 00:19:15;;;;;;;;;;;;;;;17.55;60.29;101327.00;1011986;29;679;-74
2022/03/14 00:20:07;;;;;;;;;;;;;;;17.56;60.56;101317.88;1013150;29;659;-74
2022/03/14 00:20:57;;;;;;;;;;;;;;;17.55;60.51;101324.28;1013037;29;678;-73
2022/03/14 00:21:49;;;;;;;;;;;;;;;17.54;60.48;101311.81;1012030;29;698;-73
2022/03/14 00:22:40;;;;;;;;;;;;;;;17.55;60.67;101318.91;1013100;29;704;-74
2022/03/14 00:23:31;;;;;;;;;;;;;;;17.54;60.31;101311.81;1012159;29;742;-74
2022/03/14 00:24:21;;;;;;;;;;;;;;;17.54;59.98;101317.19;1011942;29;674;-73
2022/03/14 00:25:12;;;;;;;;;;;;;;;17.54;60.01;101313.66;1010621;29;1460;-73
2022/03/14 00:26:05;;;;;;;;;;;;;;;17.54;60.66;101317.19;1009446;29;705;-72
2022/03/14 00:26:55;;;;;;;;;;;;;;;17.53;60.10;101318.19;1008816;29;707;-72
2022/03/14 00:27:46;;;;;;;;;;;;;;;17.52;60.54;101308.38;1009734;29;667;-72
2022/03/14 00:28:37;;;;;;;;;;;;;;;17.52;60.67;101313.78;1009105;29;611;-73
2022/03/14 00:29:28;;;;;;;;;;;;;;;17.53;59.92;101315.50;1009151;29;695;-72
2022/03/14 00:30:18;;;;;;;;;;;;;;;17.53;60.13;101326.28;1009732;29;619;-72
2022/03/14 00:31:09;;;;;;;;;;;;;;;17.51;60.46;101317.47;1009327;29;698;-72
2022/03/14 00:32:00;;;;;;;;;;;;;;;17.50;60.38;101321.13;1009182;29;646;-72
2022/03/14 00:32:50;;;;;;;;;;;;;;;17.51;60.17;101322.84;1009124;29;741;-72
2022/03/14 00:33:41;;;;;;;;;;;;;;;17.50;60.11;101321.13;1011638;29;1406;-72
2022/03/14 00:34:31;;;;;;;;;;;;;;;17.50;60.25;101321.13;1011921;29;656;-72
2022/03/14 00:35:22;;;;;;;;;;;;;;;17.50;60.46;101325.66;1011861;29;1409;-72
2022/03/14 00:36:12;;;;;;;;;;;;;;;17.50;60.14;101326.53;1011941;29;691;-72
2022/03/14 00:37:03;;;;;;;;;;;;;;;17.50;60.09;101321.13;1012048;29;703;-72
2022/03/14 00:37:53;;;;;;;;;;;;;;;17.49;60.33;101327.50;1012997;29;631;-72
2022/03/14 00:38:43;;;;;;;;;;;;;;;17.50;59.70;101328.38;1013012;29;686;-72
2022/03/14 00:39:34;;;;;;;;;;;;;;;17.48;60.56;101325.81;1013129;29;622;-72
2022/03/14 00:40:24;;;;;;;;;;;;;;;17.48;59.97;101336.59;1011867;29;632;-72
2022/03/14 00:41:16;;;;;;;;;;;;;;;17.48;60.02;101335.72;1012019;29;783;-72
2022/03/14 00:42:06;;;;;;;;;;;;;;;17.46;59.88;101330.47;1012953;29;1927;-72
2022/03/14 00:42:57;;;;;;;;;;;;;;;17.48;60.47;101333.03;1012108;29;703;-72
2022/03/14 00:43:47;;;;;;;;;;;;;;;17.46;60.13;101338.53;1010054;29;1327;-72
2022/03/14 00:44:39;;;;;;;;;;;;;;;17.46;59.91;101335.84;1009108;29;643;-72
2022/03/14 00:45:31;;;;;;;;;;;;;;;17.47;59.79;101332.19;1009073;29;643;-72
2022/03/14 00:46:22;;;;;;;;;;;;;;;17.46;59.43;101343.09;1009272;29;698;-72
2022/03/14 00:47:12;;;;;;;;;;;;;;;17.46;59.89;101340.38;1009161;29;635;-72
2022/03/14 00:48:03;;;;;;;;;;;;;;;17.45;59.65;101339.53;1009687;29;646;-72
2022/03/14 00:48:53;;;;;;;;;;;;;;;17.45;60.42;101350.31;1009083;29;682;-72
2022/03/14 00:49:44;;;;;;;;;;;;;;;17.44;59.89;101343.22;1009146;29;659;-72
2022/03/14 00:50:35;;;;;;;;;;;;;;;17.45;59.71;101344.06;1009066;29;635;-72
2022/03/14 00:51:25;;;;;;;;;;;;;;;17.45;59.64;101346.75;1009609;29;612;-72
2022/03/14 00:52:16;;;;;;;;;;;;;;;17.44;59.86;101343.22;1009156;29;644;-72
2022/03/14 00:53:08;;;;;;;;;;;;;;;17.43;59.92;101337.94;1009708;29;627;-72
2022/03/14 00:53:58;;;;;;;;;;;;;;;17.43;59.96;101352.28;1009640;29;683;-72
2022/03/14 00:54:49;;;;;;;;;;;;;;;17.44;59.83;101347.75;1008771;29;635;-72
2022/03/14 00:55:39;;;;;;;;;;;;;;;17.43;59.47;101352.28;1010072;29;654;-72
2022/03/14 00:56:30;;;;;;;;;;;;;;;17.42;59.55;101345.19;1010221;29;666;-73
2022/03/14 00:57:20;;;;;;;;;;;;;;;17.41;59.48;101348.84;1010250;29;627;-75
2022/03/14 00:58:11;;;;;;;;;;;;;;;17.42;60.11;101347.88;1010216;29;721;-73
2022/03/14 00:59:01;;;;;;;;;;;;;;;17.42;59.53;101349.72;1010145;29;703;-73
2022/03/14 00:59:52;;;;;;;;;;;;;;;17.41;59.88;101350.69;1010139;29;643;-73
2022/03/14 01:00:43;;;;;;;;;;;;;;;17.41;59.88;101350.69;1010101;29;655;-73
2022/03/14 01:01:33;;;;;;;;;;;;;;;17.40;59.72;101352.53;1009010;29;829;-73
2022/03/14 01:02:24;;;;;;;;;;;;;;;17.39;59.71;101353.53;1010064;29;1890;-73
2022/03/14 01:03:14;;;;;;;;;;;;;;;17.39;59.25;101358.91;1008619;29;666;-73
2022/03/14 01:04:05;;;;;;;;;;;;;;;17.40;59.65;101363.31;1008605;29;675;-73
2022/03/14 01:04:55;;;;;;;;;;;;;;;17.40;59.85;101354.38;1008029;29;671;-73
2022/03/14 01:05:46;;;;;;;;;;;;;;;17.39;59.84;101361.59;1008506;29;711;-73
2022/03/14 01:06:36;;;;;;;;;;;;;;;17.39;59.40;101361.59;1008658;29;651;-73
2022/03/14 01:07:27;;;;;;;;;;;;;;;17.39;59.70;101361.59;1008616;29;663;-73
2022/03/14 01:08:17;;;;;;;;;;;;;;;17.39;60.08;101364.28;1011732;29;1209;-73
2022/03/14 01:09:11;;;;;;;;;;;;;;;17.37;59.66;101366.28;1012942;29;639;-74
2022/03/14 01:10:01;;;;;;;;;;;;;;;17.37;59.43;101368.13;1012899;29;1450;-72
2022/03/14 01:10:52;;;;;;;;;;;;;;;17.39;60.04;101366.13;1009268;29;655;-73
2022/03/14 01:11:42;;;;;;;;;;;;;;;17.37;59.76;101363.59;1009311;29;564;-73
2022/03/14 01:12:32;;;;;;;;;;;;;;;17.37;59.67;101374.38;1009580;29;647;-73
2022/03/14 01:13:23;;;;;;;;;;;;;;;17.38;59.58;101372.53;1010107;29;651;-72
2022/03/14 01:14:14;;;;;;;;;;;;;;;17.37;59.31;101374.38;1010187;29;631;-72
2022/03/14 01:15:04;;;;;;;;;;;;;;;17.37;59.89;101369.00;1008131;29;651;-72
2022/03/14 01:15:54;;;;;;;;;;;;;;;17.36;59.83;101380.75;1010047;29;635;-72
2022/03/14 01:16:45;;;;;;;;;;;;;;;17.37;60.00;101379.75;1010018;29;663;-72
2022/03/14 01:17:36;;;;;;;;;;;;;;;17.36;59.33;101386.13;1009088;29;663;-72
2022/03/14 01:18:26;;;;;;;;;;;;;;;17.36;59.83;101380.75;1008121;29;687;-75
2022/03/14 01:19:19;;;;;;;;;;;;;;;17.35;59.76;101384.44;1009708;29;687;-74
2022/03/14 01:20:10;;;;;;;;;;;;;;;17.35;59.62;101381.72;1008993;29;1410;-74
2022/03/14 01:21:00;;;;;;;;;;;;;;;17.35;60.02;101384.44;1007919;29;612;-74
2022/03/14 01:21:51;;;;;;;;;;;;;;;17.34;59.73;101380.88;1010089;29;678;-74
2022/03/14 01:22:42;;;;;;;;;;;;;;;17.35;59.91;101389.81;1010083;29;635;-74
2022/03/14 01:23:33;;;;;;;;;;;;;;;17.34;59.95;101385.41;1008562;29;738;-74
2022/03/14 01:24:24;;;;;;;;;;;;;;;17.33;59.45;101379.16;1010122;29;640;-73
2022/03/14 01:25:15;;;;;;;;;;;;;;;17.33;59.69;101381.00;1008599;29;636;-73
2022/03/14 01:26:08;;;;;;;;;;;;;;;17.32;59.52;101387.38;1009529;29;647;-73
2022/03/14 01:26:59;;;;;;;;;;;;;;;17.33;59.24;101383.69;1008434;29;636;-73
2022/03/14 01:27:50;;;;;;;;;;;;;;;17.32;59.93;101384.69;1009553;29;754;-73
2022/03/14 01:28:41;;;;;;;;;;;;;;;17.32;59.50;101382.00;1008423;29;707;-75
2022/03/14 01:29:31;;;;;;;;;;;;;;;17.32;59.49;101392.75;1010078;29;607;-75
2022/03/14 01:30:22;;;;;;;;;;;;;;;17.31;59.40;101377.59;1010111;29;628;-75
2022/03/14 01:31:12;;;;;;;;;;;;;;;17.29;59.31;101383.09;1008432;29;660;-74
2022/03/14 01:32:03;;;;;;;;;;;;;;;17.30;59.24;101390.19;1009485;29;644;-75
2022/03/14 01:32:53;;;;;;;;;;;;;;;17.31;59.49;101382.97;1008644;29;679;-75
2022/03/14 01:33:44;;;;;;;;;;;;;;;17.29;59.77;101385.78;1007807;29;651;-74
2022/03/14 01:34:34;;;;;;;;;;;;;;;17.30;60.02;101378.56;1009704;29;698;-74
2022/03/14 01:35:25;;;;;;;;;;;;;;;17.30;59.63;101383.94;1009427;29;659;-74
2022/03/14 01:36:17;;;;;;;;;;;;;;;17.31;59.23;101388.34;1009464;29;714;-74
2022/03/14 01:37:08;;;;;;;;;;;;;;;17.29;59.27;101391.19;1008378;29;691;-73
2022/03/14 01:37:59;;;;;;;;;;;;;;;17.28;59.83;101396.69;1008502;29;632;-73
2022/03/14 01:38:49;;;;;;;;;;;;;;;17.27;59.95;101389.59;1009417;29;1445;-75
2022/03/14 01:39:39;;;;;;;;;;;;;;;17.28;59.29;101385.91;1012695;29;694;-75
2022/03/14 01:40:30;;;;;;;;;;;;;;;17.27;59.37;101385.06;1012857;29;754;-73
2022/03/14 01:41:22;;;;;;;;;;;;;;;17.27;59.29;101389.59;1008910;29;683;-72
2022/03/14 01:42:13;;;;;;;;;;;;;;;17.28;59.58;101394.00;1008275;29;1962;-72
2022/03/14 01:43:03;;;;;;;;;;;;;;;17.27;59.59;101389.59;1009986;29;646;-72
2022/03/14 01:43:55;;;;;;;;;;;;;;;17.26;59.39;101390.56;1009973;29;691;-72
2022/03/14 01:44:46;;;;;;;;;;;;;;;17.26;59.48;101393.28;1008381;29;730;-72
2022/03/14 01:45:37;;;;;;;;;;;;;;;17.26;59.46;101387.88;1009427;29;667;-72
2022/03/14 01:46:27;;;;;;;;;;;;;;;17.26;59.24;101388.75;1009469;29;801;-72
2022/03/14 01:47:17;;;;;;;;;;;;;;;17.26;59.62;101385.19;1010002;29;631;-72
2022/03/14 01:48:08;;;;;;;;;;;;;;;17.27;59.55;101392.28;1009655;29;725;-72
2022/03/14 01:49:00;;;;;;;;;;;;;;;17.26;59.14;101387.88;1009956;29;1454;-72
2022/03/14 01:49:50;;;;;;;;;;;;;;;17.24;59.38;101388.00;1012795;29;627;-73
2022/03/14 01:50:40;;;;;;;;;;;;;;;17.25;59.71;101391.56;1012749;29;710;-73
2022/03/14 01:51:32;;;;;;;;;;;;;;;17.25;59.45;101392.41;1012797;29;648;-73
2022/03/14 01:52:22;;;;;;;;;;;;;;;17.25;59.68;101396.94;1012988;29;647;-73
2022/03/14 01:53:12;;;;;;;;;;;;;;;17.25;59.52;101391.56;1012763;29;750;-74
2022/03/14 01:54:03;;;;;;;;;;;;;;;17.23;58.86;101393.53;1012779;29;695;-73
2022/03/14 01:54:53;;;;;;;;;;;;;;;17.23;59.05;101388.13;1012711;29;771;-73
2022/03/14 01:55:44;;;;;;;;;;;;;;;17.23;59.56;101391.69;1013015;29;687;-74
2022/03/14 01:56:35;;;;;;;;;;;;;;;17.22;59.15;101392.66;1012610;29;713;-73
2022/03/14 01:57:25;;;;;;;;;;;;;;;17.22;59.33;101394.50;1013268;29;656;-73
2022/03/14 01:58:16;;;;;;;;;;;;;;;17.22;59.51;101392.66;1012663;29;671;-74
2022/03/14 01:59:06;;;;;;;;;;;;;;;17.22;59.08;101391.81;1012798;29;706;-73
2022/03/14 01:59:57;;;;;;;;;;;;;;;17.22;59.00;101394.50;1012719;29;640;-74
2022/03/14 02:00:47;;;;;;;;;;;;;;;17.21;59.39;101388.25;1012814;29;644;-74
2022/03/14 02:01:38;;;;;;;;;;;;;;;17.21;59.62;101393.66;1009427;29;718;-73
2022/03/14 02:02:28;;;;;;;;;;;;;;;17.21;59.16;101390.94;1007519;29;676;-72
2022/03/14 02:03:18;;;;;;;;;;;;;;;17.21;59.08;101390.09;1009438;29;700;-72
2022/03/14 02:04:09;;;;;;;;;;;;;;;17.21;58.99;101388.25;1009349;29;656;-72
2022/03/14 02:05:00;;;;;;;;;;;;;;;17.21;59.28;101380.19;1007799;29;656;-72
2022/03/14 02:05:51;;;;;;;;;;;;;;;17.20;59.33;101380.31;1010410;29;1375;-72
2022/03/14 02:06:41;;;;;;;;;;;;;;;17.20;59.31;101383.00;1008744;29;651;-72
2022/03/14 02:07:32;;;;;;;;;;;;;;;17.18;59.30;101387.69;1008862;29;722;-72
2022/03/14 02:08:22;;;;;;;;;;;;;;;17.20;58.81;101385.69;1008823;29;659;-72
2022/03/14 02:09:13;;;;;;;;;;;;;;;17.20;59.00;101399.16;1008943;29;698;-72
2022/03/14 02:10:03;;;;;;;;;;;;;;;17.19;58.95;101392.94;1008764;29;671;-72
2022/03/14 02:10:54;;;;;;;;;;;;;;;17.19;59.19;101397.47;1008799;29;679;-72
2022/03/14 02:11:45;;;;;;;;;;;;;;;17.17;59.41;101392.22;1008883;29;702;-72
2022/03/14 02:12:35;;;;;;;;;;;;;;;17.18;59.33;101395.78;1008772;29;750;-72
2022/03/14 02:13:26;;;;;;;;;;;;;;;17.18;59.53;101395.78;1008927;29;687;-72
2022/03/14 02:14:16;;;;;;;;;;;;;;;17.17;58.96;101394.91;1008744;29;580;-72
2022/03/14 02:15:07;;;;;;;;;;;;;;;17.18;58.75;101398.47;1008257;29;623;-72
2022/03/14 02:15:57;;;;;;;;;;;;;;;17.18;59.17;101393.06;1008441;29;624;-72
2022/03/14 02:16:48;;;;;;;;;;;;;;;17.16;59.29;101398.59;1008301;29;675;-72
2022/03/14 02:17:38;;;;;;;;;;;;;;;17.17;59.03;101399.44;1008381;29;659;-72
2022/03/14 02:18:28;;;;;;;;;;;;;;;17.16;59.56;101401.28;1008333;29;636;-72
2022/03/14 02:19:20;;;;;;;;;;;;;;;17.17;59.18;101404.84;1008519;29;1071;-72
2022/03/14 02:20:11;;;;;;;;;;;;;;;17.16;58.90;101403.97;1008264;29;639;-72
2022/03/14 02:21:01;;;;;;;;;;;;;;;17.15;59.55;101401.41;1008396;29;664;-72
2022/03/14 02:21:51;;;;;;;;;;;;;;;17.16;59.54;101408.50;1008233;29;727;-72
2022/03/14 02:22:42;;;;;;;;;;;;;;;17.16;59.12;101414.75;1008366;29;707;-72
2022/03/14 02:23:32;;;;;;;;;;;;;;;17.15;58.87;101412.19;1008238;29;639;-72
2022/03/14 02:24:23;;;;;;;;;;;;;;;17.16;59.46;101419.28;1008300;29;761;-72
2022/03/14 02:25:14;;;;;;;;;;;;;;;17.15;59.08;101417.56;1008651;29;1283;-72
2022/03/14 02:26:04;;;;;;;;;;;;;;;17.15;59.01;101414.88;1008768;29;675;-72
2022/03/14 02:26:55;;;;;;;;;;;;;;;17.14;58.92;101422.09;1008900;29;630;-72
2022/03/14 02:27:45;;;;;;;;;;;;;;;17.14;58.88;101413.16;1008752;29;671;-72
2022/03/14 02:28:36;;;;;;;;;;;;;;;17.13;58.85;101414.16;1008716;29;620;-72
2022/03/14 02:29:26;;;;;;;;;;;;;;;17.13;59.07;101414.16;1008730;29;647;-72
2022/03/14 02:30:17;;;;;;;;;;;;;;;17.13;59.18;101414.16;1008699;29;698;-72
2022/03/14 02:31:08;;;;;;;;;;;;;;;17.13;59.00;101420.38;1008986;29;702;-72
2022/03/14 02:31:58;;;;;;;;;;;;;;;17.12;58.66;101421.38;1008008;29;664;-72
2022/03/14 02:32:49;;;;;;;;;;;;;;;17.13;59.09;101424.91;1008213;29;939;-73
2022/03/14 02:33:39;;;;;;;;;;;;;;;17.12;59.01;101428.59;1008801;29;639;-74
2022/03/14 02:34:30;;;;;;;;;;;;;;;17.11;58.56;101433.13;1008836;29;612;-74
2022/03/14 02:35:20;;;;;;;;;;;;;;;17.11;58.79;101433.13;1008814;29;635;-74
2022/03/14 02:36:10;;;;;;;;;;;;;;;17.10;59.11;101427.84;1008699;29;639;-74
2022/03/14 02:37:02;;;;;;;;;;;;;;;17.10;58.56;101430.56;1009313;29;615;-73
2022/03/14 02:37:53;;;;;;;;;;;;;;;17.10;58.96;101430.56;1008747;29;638;-73
2022/03/14 02:38:43;;;;;;;;;;;;;;;17.09;59.12;101435.09;1008699;29;678;-73
2022/03/14 02:39:34;;;;;;;;;;;;;;;17.09;59.06;101431.53;1009280;29;651;-74
2022/03/14 02:40:25;;;;;;;;;;;;;;;17.10;59.45;101431.41;1009251;29;925;-73
2022/03/14 02:41:15;;;;;;;;;;;;;;;17.10;59.31;101434.09;1009260;29;655;-73
2022/03/14 02:42:06;;;;;;;;;;;;;;;17.09;59.09;101435.09;1008556;29;1911;-73
2022/03/14 02:42:56;;;;;;;;;;;;;;;17.10;59.40;101441.31;1008810;29;686;-72
2022/03/14 02:43:47;;;;;;;;;;;;;;;17.09;58.67;101440.47;1008247;29;686;-73
2022/03/14 02:44:43;;;;;;;;;;;;;;;17.09;59.00;101436.91;1008503;29;699;-73
2022/03/14 02:45:33;;;;;;;;;;;;;;;17.09;58.61;101439.59;1009006;29;678;-73
2022/03/14 02:46:23;;;;;;;;;;;;;;;17.07;58.98;101437.03;1008363;29;905;-73
2022/03/14 02:47:14;;;;;;;;;;;;;;;17.08;58.78;101441.44;1008402;29;678;-75
2022/03/14 02:48:04;;;;;;;;;;;;;;;17.07;58.91;101442.44;1009981;29;1188;-72
2022/03/14 02:48:55;;;;;;;;;;;;;;;17.08;59.29;101437.91;1008414;29;634;-72
2022/03/14 02:49:45;;;;;;;;;;;;;;;17.07;59.22;101436.19;1008783;29;1437;-73
2022/03/14 02:50:35;;;;;;;;;;;;;;;17.06;58.67;101431.78;1008650;29;670;-74
2022/03/14 02:51:26;;;;;;;;;;;;;;;17.06;58.92;101439.84;1008728;29;726;-73
2022/03/14 02:52:16;;;;;;;;;;;;;;;17.06;59.48;101435.31;1008582;29;625;-74
2022/03/14 02:53:08;;;;;;;;;;;;;;;17.07;58.92;101436.19;1008737;29;608;-73
2022/03/14 02:54:01;;;;;;;;;;;;;;;17.05;58.85;101443.53;1007657;29;1160;-73
2022/03/14 02:54:52;;;;;;;;;;;;;;;17.06;58.76;101443.41;1009219;29;1271;-75
2022/03/14 02:55:42;;;;;;;;;;;;;;;17.05;59.14;101443.53;1008960;29;1166;-76
2022/03/14 02:56:33;;;;;;;;;;;;;;;17.05;58.99;101446.22;1010365;29;1190;-73
2022/03/14 02:57:24;;;;;;;;;;;;;;;17.05;59.02;101448.91;1011057;29;1099;-72
2022/03/14 02:58:14;;;;;;;;;;;;;;;17.05;59.35;101448.91;1010270;29;1150;-72
2022/03/14 02:59:05;;;;;;;;;;;;;;;17.04;58.90;101453.44;1012290;29;1170;-72
2022/03/14 02:59:56;;;;;;;;;;;;;;;17.06;59.12;101453.31;1011462;29;1215;-72
2022/03/14 03:00:47;;;;;;;;;;;;;;;17.04;58.79;101450.75;1011344;29;1429;-73
2022/03/14 03:01:37;;;;;;;;;;;;;;;17.04;59.09;101447.22;1012020;29;1287;-74
2022/03/14 03:02:28;;;;;;;;;;;;;;;17.03;58.89;101446.34;1012086;29;1907;-73
2022/03/14 03:03:18;;;;;;;;;;;;;;;17.04;58.87;101460.66;1011043;29;1258;-72
2022/03/14 03:04:10;;;;;;;;;;;;;;;17.02;58.90;101443.81;1010511;29;1206;-72
2022/03/14 03:05:05;;;;;;;;;;;;;;;17.04;58.57;101458.84;1011261;29;1294;-67
2022/03/14 03:05:56;;;;;;;;;;;;;;;17.04;58.94;101447.22;1008647;29;635;-72
2022/03/14 03:06:46;;;;;;;;;;;;;;;17.03;58.58;101451.72;1008697;29;737;-76
2022/03/14 03:07:37;;;;;;;;;;;;;;;17.02;58.98;101456.25;1009184;29;628;-74
2022/03/14 03:08:28;;;;;;;;;;;;;;;17.02;59.18;101457.28;1010174;29;1059;-74
2022/03/14 03:09:18;;;;;;;;;;;;;;;17.02;59.18;101456.25;1010803;29;1291;-75
2022/03/14 03:10:09;;;;;;;;;;;;;;;17.02;58.76;101455.41;1012517;29;1080;-74
2022/03/14 03:10:59;;;;;;;;;;;;;;;17.02;58.83;101460.78;1012739;29;1136;-73
2022/03/14 03:11:50;;;;;;;;;;;;;;;17.02;59.04;101459.97;1012525;29;1116;-73
2022/03/14 03:12:40;;;;;;;;;;;;;;;17.02;58.83;101454.59;1012786;29;1077;-74
2022/03/14 03:13:34;;;;;;;;;;;;;;;17.02;58.87;101461.66;1012693;29;1120;-73
2022/03/14 03:14:25;;;;;;;;;;;;;;;17.02;58.85;101459.97;1011563;29;1077;-73
2022/03/14 03:15:16;;;;;;;;;;;;;;;17.02;59.04;101462.66;1011110;29;1204;-73
2022/03/14 03:16:07;;;;;;;;;;;;;;;17.00;59.00;101458.25;1008403;29;1109;-73
2022/03/14 03:16:57;;;;;;;;;;;;;;;17.02;59.11;101468.03;1008367;29;1101;-74
2022/03/14 03:17:48;;;;;;;;;;;;;;;17.01;58.69;101467.19;1011929;29;1090;-73
2022/03/14 03:18:38;;;;;;;;;;;;;;;16.99;58.39;101464.63;1012767;29;1148;-73
2022/03/14 03:19:29;;;;;;;;;;;;;;;16.99;58.82;101469.16;1012438;29;1123;-73
2022/03/14 03:20:19;;;;;;;;;;;;;;;16.98;58.78;101462.91;1012774;29;1067;-73
2022/03/14 03:21:10;;;;;;;;;;;;;;;16.98;59.27;101465.59;1012551;29;1107;-74
2022/03/14 03:22:00;;;;;;;;;;;;;;;16.98;58.87;101475.50;1012664;29;1330;-74
2022/03/14 03:22:51;;;;;;;;;;;;;;;16.98;58.79;101465.59;1012535;29;1081;-73
2022/03/14 03:23:41;;;;;;;;;;;;;;;16.97;59.38;101471.97;1011526;29;1203;-70
2022/03/14 03:24:32;;;;;;;;;;;;;;;16.98;58.57;101468.28;1011027;29;1135;-71
2022/03/14 03:25:22;;;;;;;;;;;;;;;16.97;58.98;101474.66;1011399;29;1044;-71
2022/03/14 03:26:13;;;;;;;;;;;;;;;16.97;58.92;101476.50;1012507;29;1087;-71
2022/03/14 03:27:03;;;;;;;;;;;;;;;16.96;58.63;101481.03;1012794;29;1116;-71
2022/03/14 03:27:53;;;;;;;;;;;;;;;16.96;58.40;101483.72;1012467;29;1099;-71
2022/03/14 03:28:44;;;;;;;;;;;;;;;16.97;58.58;101479.19;1012749;29;1065;-71
2022/03/14 03:29:34;;;;;;;;;;;;;;;16.96;58.79;101486.41;1012260;29;1123;-70
2022/03/14 03:30:25;;;;;;;;;;;;;;;16.95;59.06;101476.63;1012710;29;1113;-70
2022/03/14 03:31:21;;;;;;;;;;;;;;;16.96;58.64;101482.84;1010769;29;1248;-70
2022/03/14 03:32:12;;;;;;;;;;;;;;;16.95;59.09;101482.00;1010847;29;1116;-70
2022/03/14 03:33:02;;;;;;;;;;;;;;;16.96;58.29;101488.25;1011886;29;1116;-70
2022/03/14 03:33:53;;;;;;;;;;;;;;;16.95;59.15;101490.06;1010006;29;1266;-71
2022/03/14 03:34:43;;;;;;;;;;;;;;;16.94;58.45;101490.19;1010456;29;1096;-71
2022/03/14 03:35:34;;;;;;;;;;;;;;;16.93;58.58;101486.66;1011805;29;1249;-74
2022/03/14 03:36:24;;;;;;;;;;;;;;;16.92;58.76;101490.31;1011940;29;1386;-73
2022/03/14 03:37:15;;;;;;;;;;;;;;;16.93;58.80;101496.56;1012128;29;1231;-73
2022/03/14 03:38:05;;;;;;;;;;;;;;;16.92;58.21;101493.00;1011600;29;1179;-73
2022/03/14 03:38:58;;;;;;;;;;;;;;;16.92;58.64;101498.41;1011852;29;1397;-73
2022/03/14 03:39:48;;;;;;;;;;;;;;;16.92;58.90;101493.00;1011589;29;1283;-73
2022/03/14 03:40:39;;;;;;;;;;;;;;;16.92;58.83;101500.22;1011018;29;1240;-73
2022/03/14 03:41:29;;;;;;;;;;;;;;;16.90;58.06;101494.97;1012060;29;1267;-73
2022/03/14 03:42:20;;;;;;;;;;;;;;;16.90;58.23;101500.34;1010169;29;1898;-73
2022/03/14 03:43:10;;;;;;;;;;;;;;;16.89;58.29;101501.34;1011253;29;1247;-73
2022/03/14 03:44:00;;;;;;;;;;;;;;;16.90;57.95;101502.19;1011161;29;1290;-73
2022/03/14 03:44:51;;;;;;;;;;;;;;;16.90;58.28;101507.56;1011238;29;1176;-72
2022/03/14 03:45:41;;;;;;;;;;;;;;;16.89;58.24;101501.34;1010159;29;1260;-71
2022/03/14 03:46:32;;;;;;;;;;;;;;;16.88;58.38;101507.69;1012392;29;651;-71
2022/03/14 03:47:24;;;;;;;;;;;;;;;16.88;58.35;101507.69;1012496;29;671;-71
2022/03/14 03:48:14;;;;;;;;;;;;;;;16.89;58.03;101513.94;1012564;29;702;-71
2022/03/14 03:49:05;;;;;;;;;;;;;;;16.88;58.49;101513.09;1012453;29;596;-71
2022/03/14 03:49:56;;;;;;;;;;;;;;;16.86;58.33;101520.41;1012552;29;632;-71
2022/03/14 03:50:46;;;;;;;;;;;;;;;16.84;58.34;101522.38;1012295;29;670;-71
2022/03/14 03:51:37;;;;;;;;;;;;;;;16.84;58.32;101516.16;1012446;29;738;-71
2022/03/14 03:52:27;;;;;;;;;;;;;;;16.83;57.82;101525.22;1012494;29;706;-71
2022/03/14 03:53:18;;;;;;;;;;;;;;;16.82;58.05;101516.28;1012398;29;628;-71
2022/03/14 03:54:08;;;;;;;;;;;;;;;16.81;58.56;101517.28;1012480;29;647;-71
2022/03/14 03:54:58;;;;;;;;;;;;;;;16.82;57.99;101518.13;1012367;29;664;-72
2022/03/14 03:55:49;;;;;;;;;;;;;;;16.80;58.43;101520.94;1012404;29;563;-73
2022/03/14 03:56:39;;;;;;;;;;;;;;;16.80;57.80;101526.31;1012591;29;699;-73
2022/03/14 03:57:30;;;;;;;;;;;;;;;16.79;58.34;101521.91;1010995;29;1259;-73
2022/03/14 03:58:20;;;;;;;;;;;;;;;16.79;58.30;101524.59;1010879;29;1266;-72
2022/03/14 03:59:11;;;;;;;;;;;;;;;16.80;58.59;101520.94;1012586;29;1276;-72
2022/03/14 04:00:04;;;;;;;;;;;;;;;16.81;58.41;101529.88;1011502;29;1224;-73
2022/03/14 04:00:54;;;;;;;;;;;;;;;16.82;58.01;101526.19;1009419;29;707;-71
2022/03/14 04:01:46;;;;;;;;;;;;;;;16.80;58.22;101523.63;1009284;29;691;-71
2022/03/14 04:02:39;;;;;;;;;;;;;;;16.80;58.08;101526.31;1009342;29;636;-71
2022/03/14 04:03:29;;;;;;;;;;;;;;;16.81;58.15;101530.72;1012908;29;741;-71
2022/03/14 04:04:20;;;;;;;;;;;;;;;16.80;57.92;101531.72;1012870;29;702;-71
2022/03/14 04:05:11;;;;;;;;;;;;;;;16.81;57.98;101533.41;1009441;29;730;-71
2022/03/14 04:06:01;;;;;;;;;;;;;;;16.81;58.15;101536.13;1009388;29;691;-71
2022/03/14 04:06:55;;;;;;;;;;;;;;;16.80;57.91;101537.09;1009288;29;683;-71
2022/03/14 04:07:46;;;;;;;;;;;;;;;16.80;57.68;101547.00;1009208;29;1424;-71
2022/03/14 04:08:37;;;;;;;;;;;;;;;16.79;57.41;101551.53;1010993;29;1285;-72
2022/03/14 04:09:27;;;;;;;;;;;;;;;16.79;57.65;101546.16;1011936;29;1243;-71
2022/03/14 04:10:18;;;;;;;;;;;;;;;16.79;57.55;101548.84;1012066;29;1308;-72
2022/03/14 04:11:09;;;;;;;;;;;;;;;16.80;57.81;101558.63;1012144;29;1207;-71
2022/03/14 04:12:00;;;;;;;;;;;;;;;16.79;57.72;101556.91;1009127;29;675;-73
2022/03/14 04:12:52;;;;;;;;;;;;;;;16.78;57.84;101557.88;1009860;29;774;-73
2022/03/14 04:13:42;;;;;;;;;;;;;;;16.78;57.79;101555.19;1009212;29;741;-73
2022/03/14 04:14:32;;;;;;;;;;;;;;;16.78;58.25;101560.56;1009748;29;615;-74
2022/03/14 04:15:23;;;;;;;;;;;;;;;16.78;57.62;101563.28;1009786;29;632;-73
2022/03/14 04:16:18;;;;;;;;;;;;;;;16.78;57.72;101560.56;1008637;29;667;-73
2022/03/14 04:17:09;;;;;;;;;;;;;;;16.79;57.71;101567.69;1008833;29;667;-73
2022/03/14 04:18:00;;;;;;;;;;;;;;;16.80;57.87;101572.09;1008849;29;691;-74
2022/03/14 04:18:50;;;;;;;;;;;;;;;16.78;57.62;101563.28;1008835;29;759;-73
2022/03/14 04:19:41;;;;;;;;;;;;;;;16.78;57.68;101571.34;1009165;29;635;-74
2022/03/14 04:20:32;;;;;;;;;;;;;;;16.78;57.52;101565.97;1008668;29;687;-74
2022/03/14 04:21:23;;;;;;;;;;;;;;;16.78;57.54;101568.66;1009756;29;1454;-73
2022/03/14 04:22:14;;;;;;;;;;;;;;;16.78;57.58;101568.66;1008201;29;1888;-73
2022/03/14 04:23:04;;;;;;;;;;;;;;;16.78;57.60;101563.28;1009344;29;651;-71
2022/03/14 04:23:54;;;;;;;;;;;;;;;16.78;57.74;101565.97;1010253;29;685;-71
2022/03/14 04:24:45;;;;;;;;;;;;;;;16.78;57.61;101574.03;1010423;29;627;-74
2022/03/14 04:25:36;;;;;;;;;;;;;;;16.77;57.67;101575.00;1013981;29;1373;-73
2022/03/14 04:26:26;;;;;;;;;;;;;;;16.76;57.46;101573.31;1011193;29;1238;-73